Time;durP1;ratioP1;P1;durP2;ratioP2;P2;SDS_P1;SDS_P2;PMS_P1;PMS_P2;Temp;Humidity;BMP_temperature;BMP_pressure;BME280_temperature;BME280_humidity;BME280_pressure;Samples;Min_cycle;Max_cycle;Signal;HPM_P1;HPM_P2
2022/12/06 00:01:49;;;;;;;61.68;33.73;;;;;;;3.59;92.14;100306.97;2101069;83;21006;-80
2022/12/06 00:04:50;;;;;;;60.78;33.80;;;;;;;3.57;92.02;100298.85;2107291;83;21022;-80
2022/12/06 00:07:52;;;;;;;61.25;35.00;;;;;;;3.51;91.91;100297.53;2102144;83;21045;-81
2022/12/06 00:10:53;;;;;;;63.58;36.10;;;;;;;3.49;92.02;100306.47;2107076;83;21062;-81
2022/12/06 00:14:01;;;;;;;64.75;36.08;;;;;;;3.47;92.11;100298.73;2107741;83;21035;-81
2022/12/06 00:17:02;;;;;;;67.53;37.58;;;;;;;3.43;92.09;100289.41;2111619;83;21026;-78
2022/12/06 00:20:05;;;;;;;66.75;36.00;;;;;;;3.43;92.21;100286.78;2113010;83;21047;-77
2022/12/06 00:23:06;;;;;;;66.95;36.50;;;;;;;3.46;92.33;100292.28;2081546;83;20993;-79
2022/12/06 00:26:08;;;;;;;63.15;35.70;;;;;;;3.46;92.28;100298.36;2082540;83;21090;-80
2022/12/06 00:29:20;;;;;;;63.28;32.42;;;;;;;3.46;92.30;100295.73;2106976;83;21061;-80
2022/12/06 00:32:21;;;;;;;69.55;37.30;;;;;;;3.45;92.31;100304.56;2107734;83;21077;-80
2022/12/06 00:35:22;;;;;;;68.33;38.28;;;;;;;3.51;92.41;100301.47;2109931;83;20980;-80
2022/12/06 00:38:25;;;;;;;68.12;37.30;;;;;;;3.54;92.45;100297.78;2116779;83;21073;-76
2022/12/06 00:41:27;;;;;;;67.58;35.40;;;;;;;3.56;92.40;100307.69;2107974;83;21456;-79
2022/12/06 00:44:28;;;;;;;66.28;36.73;;;;;;;3.59;92.36;100310.08;2109208;83;21077;-80
2022/12/06 00:47:29;;;;;;;65.65;33.83;;;;;;;3.62;92.37;100326.06;2109206;83;21018;-79
2022/12/06 00:50:30;;;;;;;63.15;34.80;;;;;;;3.58;92.14;100317.12;2114650;83;21545;-78
2022/12/06 00:53:31;;;;;;;59.77;33.58;;;;;;;3.57;92.33;100321.98;2118974;83;21061;-79
2022/12/06 00:56:36;;;;;;;62.15;33.70;;;;;;;3.58;92.35;100312.35;2089345;84;21533;-77
2022/12/06 00:59:37;;;;;;;68.78;36.55;;;;;;;3.58;92.33;100311.87;2089536;83;21044;-80
2022/12/06 01:02:38;;;;;;;60.40;35.28;;;;;;;3.57;92.30;100301.48;2088183;83;20983;-80
2022/12/06 01:05:46;;;;;;;62.40;34.43;;;;;;;3.55;92.21;100299.47;2087983;83;21049;-80
2022/12/06 01:08:47;;;;;;;64.53;35.48;;;;;;;3.54;92.27;100301.71;2091719;83;21053;-78
2022/12/06 01:11:48;;;;;;;59.33;34.45;;;;;;;3.56;92.32;100294.56;2090599;83;21008;-80
2022/12/06 01:14:49;;;;;;;63.83;35.92;;;;;;;3.56;92.26;100294.56;2092061;84;21467;-81
2022/12/06 01:17:50;;;;;;;61.37;34.67;;;;;;;3.55;92.26;100281.94;2082254;84;20986;-80
2022/12/06 01:20:52;;;;;;;64.70;34.78;;;;;;;3.51;92.17;100274.41;2103494;83;20998;-81
2022/12/06 01:23:53;;;;;;;69.27;36.88;;;;;;;3.49;92.25;100264.49;2087524;84;21561;-76
2022/12/06 01:26:54;;;;;;;69.45;39.80;;;;;;;3.43;92.11;100248.75;2082983;85;21007;-79
2022/12/06 01:29:55;;;;;;;69.97;37.98;;;;;;;3.34;92.07;100246.36;2076508;84;21029;-80
2022/12/06 01:32:56;;;;;;;75.30;40.08;;;;;;;3.29;92.24;100240.62;2105274;83;21030;-77
2022/12/06 01:35:57;;;;;;;74.45;39.23;;;;;;;3.30;92.48;100241.00;2081098;84;21013;-80
2022/12/06 01:38:59;;;;;;;63.50;36.20;;;;;;;3.33;92.52;100228.13;2066813;85;21119;-80
2022/12/06 01:42:01;;;;;;;60.28;35.03;;;;;;;3.31;92.50;100226.92;2066706;86;21006;-79
2022/12/06 01:45:03;;;;;;;65.40;37.10;;;;;;;3.32;92.53;100233.00;2066604;85;21005;-80
2022/12/06 01:48:05;;;;;;;62.03;34.55;;;;;;;3.29;92.47;100218.33;2106748;84;21085;-77
2022/12/06 01:51:08;;;;;;;55.65;32.42;;;;;;;3.27;92.49;100210.25;2103794;83;21009;-80
2022/12/06 01:54:13;;;;;;;60.78;34.03;;;;;;;3.24;92.49;100205.20;2073594;85;21072;-79
2022/12/06 01:57:16;;;;;;;61.23;34.73;;;;;;;3.22;92.63;100191.41;2073259;84;21082;-81
2022/12/06 02:00:18;;;;;;;65.52;33.90;;;;;;;3.22;92.73;100192.71;2108338;84;21496;-80
2022/12/06 02:03:23;;;;;;;65.30;32.85;;;;;;;3.21;92.75;100196.27;2083651;84;21068;-81
2022/12/06 02:06:24;;;;;;;57.48;32.48;;;;;;;3.22;92.89;100191.41;2083587;84;21069;-81
2022/12/06 02:09:27;;;;;;;65.83;32.65;;;;;;;3.26;92.90;100190.20;2102527;83;21007;-80
2022/12/06 02:12:28;;;;;;;59.83;32.75;;;;;;;3.30;93.00;100206.07;2079280;83;21025;-79
2022/12/06 02:16:07;;;;;;;62.50;33.65;;;;;;;3.32;92.97;100207.63;2097840;83;21087;-80
2022/12/06 02:19:38;;;;;;;58.60;33.73;;;;;;;3.36;92.99;100202.97;2095518;84;21018;-80
2022/12/06 02:22:57;;;;;;;61.68;32.73;;;;;;;3.42;92.98;100205.12;2085131;83;21069;-81
2022/12/06 02:26:52;;;;;;;61.02;33.63;;;;;;;3.46;92.92;100200.46;2088494;83;21582;-79
2022/12/06 02:30:34;;;;;;;58.78;32.15;;;;;;;3.45;92.80;100197.00;2088286;84;21076;-79
2022/12/06 02:33:58;;;;;;;57.08;32.13;;;;;;;3.42;92.64;100193.31;2088504;84;21094;-80
2022/12/06 02:37:22;;;;;;;52.62;30.08;;;;;;;3.38;92.57;100190.58;2091558;84;21061;-81
2022/12/06 02:40:29;;;;;;;57.43;32.88;;;;;;;3.40;92.84;100188.66;2088541;83;20960;-79
2022/12/06 02:43:44;;;;;;;57.95;32.08;;;;;;;3.37;92.77;100181.86;2088871;84;21102;-81
2022/12/06 02:46:50;;;;;;;54.65;30.97;;;;;;;3.33;92.68;100170.42;2082041;84;21124;-77
2022/12/06 02:49:53;;;;;;;59.03;31.55;;;;;;;3.29;92.74;100168.98;2088646;84;21026;-81
2022/12/06 02:52:58;;;;;;;58.73;32.85;;;;;;;3.28;92.77;100164.70;2086529;84;21625;-80
2022/12/06 02:56:00;;;;;;;57.20;32.23;;;;;;;3.26;92.77;100163.97;2091011;84;22148;-80
2022/12/06 02:59:02;;;;;;;53.30;31.57;;;;;;;3.23;92.77;100149.31;2059235;84;21077;-77
2022/12/06 03:02:08;;;;;;;56.10;31.52;;;;;;;3.21;92.83;100151.69;2091044;83;21040;-80
2022/12/06 03:05:18;;;;;;;60.40;32.25;;;;;;;3.23;92.98;100153.72;2089555;84;21115;-80
2022/12/06 03:08:36;;;;;;;54.93;32.28;;;;;;;3.18;92.82;100154.55;2085406;84;21006;-78
2022/12/06 03:12:06;;;;;;;54.48;31.17;;;;;;;3.15;92.87;100156.92;2092231;83;20979;-81
2022/12/06 03:15:36;;;;;;;59.58;30.43;;;;;;;3.16;92.97;100156.00;2078306;84;21502;-80
2022/12/06 03:18:45;;;;;;;56.45;31.60;;;;;;;3.21;93.13;100156.93;2087726;84;21030;-80
2022/12/06 03:22:07;;;;;;;56.20;30.45;;;;;;;3.25;93.20;100141.34;2109410;83;21094;-78
2022/12/06 03:25:10;;;;;;;55.78;31.23;;;;;;;3.28;93.15;100147.66;2118078;83;21376;-79
2022/12/06 03:28:14;;;;;;;51.08;29.92;;;;;;;3.32;93.23;100142.52;2079501;85;21006;-78
2022/12/06 03:31:16;;;;;;;53.63;29.67;;;;;;;3.35;93.24;100150.14;2096993;83;21178;-81
2022/12/06 03:34:35;;;;;;;56.10;30.52;;;;;;;3.42;93.33;100150.03;2077859;85;22368;-76
2022/12/06 03:37:40;;;;;;;52.83;30.30;;;;;;;3.40;93.11;100144.06;2086096;83;21144;-81
2022/12/06 03:40:46;;;;;;;53.98;30.45;;;;;;;3.40;93.00;100143.23;2114136;83;21057;-81
2022/12/06 03:43:47;;;;;;;55.60;31.70;;;;;;;3.40;92.98;100143.23;2100561;84;21081;-80
2022/12/06 03:46:52;;;;;;;56.55;32.38;;;;;;;3.42;93.06;100137.40;2097153;84;21050;-81
2022/12/06 03:50:02;;;;;;;58.70;34.60;;;;;;;3.44;93.00;100141.57;2103520;84;21581;-80
2022/12/06 03:53:03;;;;;;;59.55;34.43;;;;;;;3.42;92.83;100140.02;2098550;84;22464;-81
2022/12/06 03:56:05;;;;;;;57.55;33.23;;;;;;;3.40;92.85;100136.19;2109056;83;21079;-78
2022/12/06 03:59:10;;;;;;;57.08;32.08;;;;;;;3.37;92.77;100134.64;2108220;83;20999;-79
2022/12/06 04:02:11;;;;;;;58.50;32.80;;;;;;;3.36;92.86;100134.78;2115475;82;21093;-80
2022/12/06 04:05:13;;;;;;;64.45;34.35;;;;;;;3.33;92.73;100132.39;2110772;83;21015;-80
2022/12/06 04:08:14;;;;;;;67.20;38.08;;;;;;;3.26;92.63;100122.84;2111843;83;21061;-81
2022/12/06 04:11:15;;;;;;;64.80;35.75;;;;;;;3.18;92.72;100125.70;2107296;83;21703;-80
2022/12/06 04:14:16;;;;;;;63.98;36.53;;;;;;;3.20;92.98;100135.61;2119775;83;21089;-76
2022/12/06 04:24:09;;;;;;;60.15;34.73;;;;;;;3.31;93.24;100140.85;2124679;82;21078;-80
2022/12/06 04:40:29;;;;;;;61.73;36.30;;;;;;;3.40;93.12;100130.95;2124043;82;21128;-82
2022/12/06 04:43:42;;;;;;;65.37;35.25;;;;;;;3.38;93.00;100121.08;2127020;83;22405;-82
2022/12/06 04:46:44;;;;;;;66.05;35.95;;;;;;;3.34;92.92;100123.08;2129253;82;21110;-81
2022/12/06 04:49:45;;;;;;;57.70;32.70;;;;;;;3.35;93.03;100121.28;2122475;82;21053;-79
2022/12/06 04:52:46;;;;;;;58.87;33.05;;;;;;;3.35;93.06;100106.86;2125743;82;20982;-80
2022/12/06 04:55:48;;;;;;;54.93;32.95;;;;;;;3.36;93.02;100112.00;2122242;82;21038;-78
2022/12/06 04:58:49;;;;;;;59.83;33.67;;;;;;;3.36;92.94;100104.61;2102975;84;21443;-79
2022/12/06 05:01:51;;;;;;;62.90;34.15;;;;;;;3.38;93.05;100107.96;2098454;84;21045;-80
2022/12/06 05:04:52;;;;;;;58.95;33.30;;;;;;;3.40;93.11;100106.02;2125257;83;21070;-77
2022/12/06 05:07:53;;;;;;;73.60;37.53;;;;;;;3.41;93.06;100092.42;2124057;83;21073;-79
2022/12/06 05:10:54;;;;;;;66.47;36.28;;;;;;;3.38;92.99;100096.16;2121830;82;21009;-79
2022/12/06 05:13:55;;;;;;;76.17;39.75;;;;;;;3.39;93.11;100093.88;2103835;82;21355;-79
2022/12/06 05:16:57;;;;;;;76.80;39.20;;;;;;;3.39;93.15;100088.63;2092804;84;20990;-79
2022/12/06 05:19:58;;;;;;;74.80;38.58;;;;;;;3.42;93.26;100087.08;2090661;84;21025;-77
2022/12/06 05:22:59;;;;;;;68.95;39.40;;;;;;;3.45;93.30;100084.69;2095910;84;21481;-78
2022/12/06 05:26:03;;;;;;;72.17;37.78;;;;;;;3.47;93.37;100079.68;2093529;84;21488;-78
2022/12/06 05:29:04;;;;;;;67.92;36.60;;;;;;;3.48;93.20;100083.95;2092430;84;21459;-75
2022/12/06 05:32:05;;;;;;;68.00;36.28;;;;;;;3.48;93.16;100082.64;2090557;84;21083;-77
2022/12/06 05:35:07;;;;;;;61.95;34.85;;;;;;;3.49;93.14;100082.16;2095371;84;21022;-77
2022/12/06 05:38:09;;;;;;;70.78;38.95;;;;;;;3.49;93.28;100077.78;2093940;84;21018;-75
2022/12/06 05:41:10;;;;;;;69.15;36.10;;;;;;;3.49;93.24;100069.91;2094677;84;21457;-77
2022/12/06 05:44:11;;;;;;;71.05;36.40;;;;;;;3.47;93.14;100073.60;2091473;84;21636;-77
2022/12/06 05:47:12;;;;;;;66.33;37.78;;;;;;;3.44;93.08;100082.55;2094747;84;20983;-78
2022/12/06 05:50:13;;;;;;;74.12;41.05;;;;;;;3.40;93.08;100074.55;2090299;84;21047;-79
2022/12/06 05:53:14;;;;;;;75.45;43.95;;;;;;;3.39;93.06;100074.20;2093118;84;20973;-78
2022/12/06 05:56:15;;;;;;;76.65;45.60;;;;;;;3.36;93.14;100067.89;2091202;84;22199;-76
2022/12/06 05:59:17;;;;;;;70.08;41.53;;;;;;;3.35;93.13;100072.77;2077947;83;21031;-75
2022/12/06 06:02:18;;;;;;;68.25;39.03;;;;;;;3.32;93.15;100072.55;2082414;83;21513;-75
2022/12/06 06:05:19;;;;;;;64.58;38.67;;;;;;;3.32;93.27;100074.32;2084784;83;21098;-75
2022/12/06 06:08:20;;;;;;;62.98;36.55;;;;;;;3.32;93.40;100073.01;2093304;84;21450;-76
2022/12/06 06:11:21;;;;;;;54.60;32.15;;;;;;;3.33;93.42;100076.84;2092607;84;21046;-75
2022/12/06 06:14:22;;;;;;;61.85;34.90;;;;;;;3.34;93.45;100078.49;2090300;84;21547;-75
2022/12/06 06:17:23;;;;;;;55.78;32.88;;;;;;;3.36;93.50;100078.38;2096686;84;21030;-76
2022/12/06 06:20:24;;;;;;;59.67;31.12;;;;;;;3.37;93.49;100077.42;2120057;83;21508;-75
2022/12/06 06:23:27;;;;;;;51.55;29.05;;;;;;;3.32;93.36;100079.56;2090501;84;21029;-76
2022/12/06 06:26:28;;;;;;;54.88;30.30;;;;;;;3.27;93.35;100085.67;2092858;84;21074;-75
2022/12/06 06:29:29;;;;;;;55.15;29.72;;;;;;;3.20;93.35;100089.72;2090435;84;21025;-75
2022/12/06 06:32:32;;;;;;;53.65;30.52;;;;;;;3.15;93.50;100091.37;2088015;84;22154;-75
2022/12/06 06:35:34;;;;;;;55.50;28.87;;;;;;;3.12;93.63;100095.07;2090761;84;21038;-76
2022/12/06 06:38:35;;;;;;;54.55;30.20;;;;;;;3.10;93.68;100094.37;2091988;83;21041;-76
2022/12/06 06:41:36;;;;;;;50.95;28.73;;;;;;;3.09;93.72;100097.11;2083894;84;21042;-76
2022/12/06 06:44:37;;;;;;;50.30;28.60;;;;;;;3.06;93.72;100095.55;2087256;84;22210;-75
2022/12/06 06:47:38;;;;;;;51.68;29.00;;;;;;;3.04;93.79;100096.17;2084765;84;21471;-75
2022/12/06 06:50:39;;;;;;;50.48;29.75;;;;;;;3.03;93.88;100094.48;2091240;84;20994;-75
2022/12/06 06:53:40;;;;;;;49.48;28.45;;;;;;;3.04;93.99;100098.80;2088922;84;21031;-76
2022/12/06 06:56:41;;;;;;;43.58;25.80;;;;;;;3.04;93.97;100094.86;2091162;84;21037;-75
2022/12/06 06:59:43;;;;;;;50.65;28.02;;;;;;;3.03;93.96;100089.72;2091098;83;22228;-75
2022/12/06 07:02:44;;;;;;;40.78;23.67;;;;;;;3.02;94.03;100090.69;2078821;84;21032;-75
2022/12/06 07:05:52;;;;;;;38.30;22.50;;;;;;;3.02;93.94;100097.23;2085554;84;21065;-75
2022/12/06 07:08:53;;;;;;;33.30;19.40;;;;;;;3.01;93.86;100093.76;2091100;83;20991;-75
2022/12/06 07:11:54;;;;;;;34.92;19.57;;;;;;;2.99;93.73;100093.06;2087811;84;20978;-75
2022/12/06 07:14:55;;;;;;;31.23;17.92;;;;;;;2.98;93.62;100084.83;2089294;83;21060;-74
2022/12/06 07:17:56;;;;;;;30.92;17.10;;;;;;;3.00;93.61;100082.93;2089404;83;21071;-75
2022/12/06 07:21:06;;;;;;;27.65;17.05;;;;;;;3.01;93.47;100082.45;2090046;83;21001;-76
2022/12/06 07:24:08;;;;;;;28.70;17.27;;;;;;;3.05;93.54;100086.03;2085411;84;21537;-77
2022/12/06 07:27:10;;;;;;;29.80;17.50;;;;;;;3.07;93.48;100078.89;2090281;84;21471;-76
2022/12/06 07:30:13;;;;;;;30.08;17.42;;;;;;;3.07;93.32;100081.52;2089587;83;21049;-77
2022/12/06 07:33:14;;;;;;;26.35;16.23;;;;;;;3.09;93.35;100076.96;2086111;84;20991;-77
2022/12/06 07:36:16;;;;;;;51.33;17.40;;;;;;;3.09;93.31;100070.41;2093837;84;21056;-77
2022/12/06 07:39:17;;;;;;;29.77;17.25;;;;;;;3.13;93.43;100082.34;2089114;84;21036;-77
2022/12/06 07:45:37;;;;;;;30.40;18.10;;;;;;;3.19;93.44;100066.60;2084286;84;21082;-76
2022/12/06 07:48:38;;;;;;;36.95;20.48;;;;;;;3.18;93.30;100071.95;2089799;84;21116;-77
2022/12/06 07:51:39;;;;;;;36.30;20.80;;;;;;;3.20;93.41;100066.95;2092682;84;21296;-76
2022/12/06 07:54:40;;;;;;;38.42;22.87;;;;;;;3.23;93.47;100067.19;2087791;84;21070;-76
2022/12/06 07:57:42;;;;;;;45.88;24.72;;;;;;;3.26;93.50;100065.62;2081125;84;21040;-75
2022/12/06 08:00:44;;;;;;;49.65;27.13;;;;;;;3.28;93.46;100060.63;2085485;84;21046;-76
2022/12/06 08:03:45;;;;;;;49.03;26.80;;;;;;;3.30;93.46;100057.89;2087932;84;21083;-77
2022/12/06 08:06:46;;;;;;;49.23;27.70;;;;;;;3.32;93.40;100053.34;2084093;84;21659;-76
2022/12/06 08:09:47;;;;;;;45.78;24.77;;;;;;;3.34;93.37;100054.89;2087564;83;21023;-76
2022/12/06 08:12:48;;;;;;;46.75;25.00;;;;;;;3.33;93.34;100048.47;2087928;84;21592;-76
2022/12/06 08:15:49;;;;;;;36.53;21.27;;;;;;;3.33;93.35;100053.23;2086545;84;21087;-77
2022/12/06 08:18:51;;;;;;;36.05;19.95;;;;;;;3.32;93.35;100048.09;2090183;84;21103;-77
2022/12/06 08:21:52;;;;;;;39.08;20.57;;;;;;;3.32;93.33;100046.78;2087810;84;20966;-76
2022/12/06 08:24:53;;;;;;;36.75;18.52;;;;;;;3.28;93.21;100050.13;2064820;84;21057;-76
2022/12/06 08:27:54;;;;;;;30.30;17.10;;;;;;;3.24;93.16;100051.34;2081631;84;21116;-76
2022/12/06 08:30:56;;;;;;;22.55;13.98;;;;;;;3.20;93.01;100055.62;2079964;84;21049;-76
2022/12/06 08:33:57;;;;;;;25.72;15.43;;;;;;;3.12;92.83;100054.43;2071877;84;21525;-77
2022/12/06 08:36:58;;;;;;;24.52;15.45;;;;;;;3.06;92.77;100054.09;2091181;84;21077;-76
2022/12/06 08:39:59;;;;;;;26.15;15.83;;;;;;;3.03;92.93;100053.84;2084130;84;20997;-77
2022/12/06 08:43:00;;;;;;;28.70;16.77;;;;;;;3.03;92.97;100056.95;2086090;84;21598;-77
2022/12/06 08:46:01;;;;;;;23.20;14.70;;;;;;;2.98;92.97;100060.41;2093232;84;21119;-77
2022/12/06 08:49:03;;;;;;;20.52;13.22;;;;;;;2.90;92.67;100063.61;2081606;84;21156;-77
2022/12/06 08:52:04;;;;;;;22.27;13.10;;;;;;;2.90;92.67;100063.61;2091484;84;21025;-77
2022/12/06 08:55:07;;;;;;;20.48;12.47;;;;;;;2.88;92.79;100058.98;2084672;84;21096;-77
2022/12/06 08:58:08;;;;;;;23.45;14.00;;;;;;;2.88;92.85;100056.37;2084507;84;20998;-76
2022/12/06 09:01:13;;;;;;;22.75;13.28;;;;;;;2.87;92.95;100049.44;2087574;84;21096;-76
2022/12/06 09:04:15;;;;;;;19.55;12.40;;;;;;;2.88;92.98;100043.27;2080492;84;21024;-77
2022/12/06 09:07:17;;;;;;;16.62;11.88;;;;;;;2.87;92.94;100040.27;2084914;84;21086;-75
2022/12/06 09:10:18;;;;;;;21.68;13.55;;;;;;;2.86;92.92;100045.98;2085398;84;21012;-76
2022/12/06 09:13:19;;;;;;;16.97;11.35;;;;;;;2.88;92.99;100044.58;2087684;84;20994;-77
2022/12/06 09:16:22;;;;;;;16.25;11.53;;;;;;;2.88;92.88;100041.95;2054123;84;21170;-76
2022/12/06 09:19:23;;;;;;;17.07;10.78;;;;;;;2.88;92.88;100041.95;2088007;84;21107;-77
2022/12/06 09:22:25;;;;;;;14.65;9.20;;;;;;;2.84;92.79;100050.51;2088143;84;21777;-76
2022/12/06 09:25:26;;;;;;;13.28;9.35;;;;;;;2.83;92.82;100048.84;2080751;84;21572;-77
2022/12/06 09:28:28;;;;;;;14.05;10.05;;;;;;;2.78;92.67;100044.44;2086044;84;21524;-76
2022/12/06 09:31:30;;;;;;;15.32;11.10;;;;;;;2.79;92.79;100038.72;2082979;84;21022;-77
2022/12/06 09:34:31;;;;;;;22.73;14.90;;;;;;;2.79;92.89;100027.78;2092417;84;21080;-76
2022/12/06 09:37:33;;;;;;;18.70;13.28;;;;;;;2.77;92.92;100019.67;2092120;84;21040;-75
2022/12/06 09:41:13;;;;;;;18.85;12.25;;;;;;;2.77;93.02;100015.75;2085437;84;21574;-76
2022/12/06 09:44:28;;;;;;;23.53;15.73;;;;;;;2.76;93.02;100020.61;2080850;84;22308;-76
2022/12/06 09:47:56;;;;;;;23.57;14.35;;;;;;;2.75;93.07;100022.89;2074549;84;21491;-79
2022/12/06 09:51:31;;;;;;;19.00;11.75;;;;;;;2.77;93.34;100029.67;2071631;84;21099;-84
2022/12/06 09:54:59;;;;;;;18.15;11.70;;;;;;;2.76;93.18;100029.33;2086670;84;21032;-78
2022/12/06 09:58:43;;;;;;;15.83;10.30;;;;;;;2.73;93.08;100037.40;2036278;84;21080;-72
2022/12/06 10:02:15;;;;;;;16.48;10.23;;;;;;;2.68;92.99;100027.30;2084534;84;21389;-74
2022/12/06 10:05:49;;;;;;;16.02;10.45;;;;;;;2.68;93.16;100025.98;2079452;84;21073;-73
2022/12/06 10:09:36;;;;;;;20.17;11.60;;;;;;;2.67;93.14;100013.81;2093188;84;21064;-70
2022/12/06 10:13:18;;;;;;;15.00;11.48;;;;;;;2.67;93.24;100005.12;2092893;84;21017;-71
2022/12/06 10:16:43;;;;;;;17.70;12.28;;;;;;;2.66;93.30;99994.30;2096131;84;21561;-70
2022/12/06 10:20:08;;;;;;;19.32;12.85;;;;;;;2.66;93.41;99982.03;2075796;84;21483;-71
2022/12/06 10:23:30;;;;;;;17.82;13.18;;;;;;;2.66;93.45;99987.75;2096155;83;20955;-70
2022/12/06 10:26:46;;;;;;;18.00;13.20;;;;;;;2.65;93.51;99986.92;2095367;84;21046;-70
2022/12/06 10:29:57;;;;;;;20.95;13.68;;;;;;;2.65;93.54;99975.63;2098084;83;21057;-73
2022/12/06 10:33:22;;;;;;;23.67;14.80;;;;;;;2.66;93.58;99981.20;2102470;83;21052;-72
2022/12/06 10:37:02;;;;;;;26.52;17.50;;;;;;;2.67;93.71;99986.31;2066952;84;21593;-72
2022/12/06 10:40:11;;;;;;;28.60;18.00;;;;;;;2.63;93.65;99980.96;2109411;83;21123;-71
2022/12/06 10:43:21;;;;;;;28.07;18.87;;;;;;;2.64;93.82;99975.24;2113988;83;21033;-70
2022/12/06 10:50:20;;;;;;;29.55;17.55;;;;;;;2.67;93.91;99962.73;2098662;84;21120;-79
2022/12/06 10:53:25;;;;;;;25.55;16.67;;;;;;;2.66;93.86;99962.38;2084998;83;21090;-81
2022/12/06 10:56:33;;;;;;;23.83;16.27;;;;;;;2.64;93.89;99959.05;2088869;83;21062;-80
2022/12/06 10:59:50;;;;;;;25.02;16.57;;;;;;;2.65;93.94;99953.35;2089709;84;21029;-80
2022/12/06 11:03:15;;;;;;;26.40;16.17;;;;;;;2.62;93.97;99949.18;2090143;84;22224;-80
2022/12/06 11:06:27;;;;;;;26.95;16.73;;;;;;;2.60;93.98;99937.16;2081243;83;21008;-81
2022/12/06 11:09:48;;;;;;;24.70;16.23;;;;;;;2.60;94.11;99942.39;2083821;84;20992;-81
2022/12/06 11:12:58;;;;;;;25.10;15.28;;;;;;;2.58;94.11;99941.67;2093363;83;21020;-81
2022/12/06 11:16:20;;;;;;;21.40;15.25;;;;;;;2.58;94.20;99938.57;2119621;83;20995;-81
2022/12/06 11:19:43;;;;;;;24.15;16.17;;;;;;;2.60;94.29;99936.67;2111493;83;21077;-82
2022/12/06 11:23:05;;;;;;;25.82;15.28;;;;;;;2.62;94.33;99920.36;2117085;83;21557;-81
2022/12/06 11:26:24;;;;;;;24.10;15.25;;;;;;;2.63;94.42;99924.64;2110905;83;21034;-81
2022/12/06 11:29:25;;;;;;;21.95;15.50;;;;;;;2.63;94.40;99918.09;2072673;84;21041;-79
2022/12/06 11:32:26;;;;;;;26.20;16.55;;;;;;;2.63;94.32;99918.58;2100180;84;21033;-82
2022/12/06 11:35:28;;;;;;;22.22;15.85;;;;;;;2.60;94.19;99924.06;2089848;84;21057;-78
2022/12/06 11:38:30;;;;;;;20.55;14.68;;;;;;;2.57;94.20;99922.51;2084478;84;21122;-82
2022/12/06 11:41:35;;;;;;;21.42;15.65;;;;;;;2.56;94.27;99923.47;2087066;84;21055;-81
2022/12/06 11:44:45;;;;;;;22.10;14.58;;;;;;;2.54;94.16;99920.61;2094687;84;21053;-81
2022/12/06 11:47:47;;;;;;;22.48;14.50;;;;;;;2.52;94.21;99919.89;2092039;84;21127;-82
2022/12/06 11:50:51;;;;;;;21.00;14.07;;;;;;;2.50;94.13;99921.78;2095513;84;21588;-81
2022/12/06 11:54:00;;;;;;;19.92;13.58;;;;;;;2.46;94.03;99917.28;2090819;84;21090;-81
2022/12/06 11:57:07;;;;;;;18.17;13.25;;;;;;;2.43;94.09;99911.80;2083195;84;21049;-81
2022/12/06 12:00:22;;;;;;;19.75;13.60;;;;;;;2.42;94.06;99902.73;2066498;84;21455;-81
2022/12/06 12:03:34;;;;;;;14.83;10.85;;;;;;;2.44;94.10;99894.30;2089474;84;22273;-79
2022/12/06 12:06:36;;;;;;;13.38;10.30;;;;;;;2.44;93.94;99889.88;2089727;84;20999;-79
2022/12/06 12:09:51;;;;;;;11.63;9.83;;;;;;;2.43;93.84;99891.33;2085402;84;21074;-79
2022/12/06 12:16:21;;;;;;;12.05;9.20;;;;;;;2.43;93.75;99886.09;2086814;84;21017;-81
2022/12/06 12:19:44;;;;;;;12.15;10.25;;;;;;;2.45;93.88;99888.95;2087419;85;21556;-81
2022/12/06 12:22:52;;;;;;;14.28;10.58;;;;;;;2.45;93.78;99891.56;2089980;85;21551;-80
2022/12/06 12:26:19;;;;;;;14.83;11.20;;;;;;;2.43;93.69;99890.02;2082574;85;21101;-80
2022/12/06 12:29:21;;;;;;;15.80;11.18;;;;;;;2.41;93.68;99890.61;2073918;84;21016;-81
2022/12/06 12:32:22;;;;;;;15.95;12.28;;;;;;;2.38;93.62;99891.67;2067074;84;21044;-81
2022/12/06 12:35:30;;;;;;;14.85;11.12;;;;;;;2.36;93.62;99895.36;2098970;84;21042;-78
2022/12/06 12:38:50;;;;;;;13.85;10.88;;;;;;;2.32;93.54;99896.57;2094855;84;21494;-80
2022/12/06 12:41:51;;;;;;;13.03;10.58;;;;;;;2.28;93.51;99892.50;2110282;84;21300;-81
2022/12/06 12:44:57;;;;;;;14.80;11.48;;;;;;;2.24;93.47;99890.61;2107719;83;21117;-80
2022/12/06 12:48:21;;;;;;;16.25;11.43;;;;;;;2.21;93.51;99890.84;2116394;83;21084;-81
2022/12/06 12:51:33;;;;;;;14.73;10.95;;;;;;;2.20;93.55;99891.33;2117262;83;20955;-81
2022/12/06 12:54:36;;;;;;;14.65;10.70;;;;;;;2.21;93.63;99892.98;2108508;83;21525;-82
2022/12/06 12:57:39;;;;;;;14.60;11.03;;;;;;;2.19;93.57;99885.72;2115656;83;21022;-81
2022/12/06 13:00:44;;;;;;;14.28;10.98;;;;;;;2.19;93.58;99883.58;2112098;83;21501;-81
2022/12/06 13:03:47;;;;;;;13.85;10.43;;;;;;;2.20;93.67;99884.78;2113511;83;21075;-82
2022/12/06 13:07:08;;;;;;;14.43;11.40;;;;;;;2.18;93.60;99881.45;2111081;83;20998;-81
2022/12/06 13:10:18;;;;;;;14.10;11.53;;;;;;;2.19;93.69;99880.97;2114432;83;21178;-82
2022/12/06 13:13:28;;;;;;;15.15;11.38;;;;;;;2.21;93.76;99879.07;2109489;83;21505;-82
2022/12/06 13:16:35;;;;;;;16.10;11.38;;;;;;;2.20;93.65;99877.41;2118460;83;21104;-82
2022/12/06 13:19:41;;;;;;;15.18;11.30;;;;;;;2.15;93.58;99868.59;2117187;83;21565;-81
2022/12/06 13:22:44;;;;;;;14.15;11.10;;;;;;;2.17;93.59;99871.94;2132683;82;21580;-82
2022/12/06 13:25:54;;;;;;;15.83;11.88;;;;;;;2.17;93.58;99868.02;2123864;82;21500;-82
2022/12/06 13:29:04;;;;;;;14.07;11.35;;;;;;;2.17;93.58;99870.63;2112305;83;21490;-81
2022/12/06 13:32:29;;;;;;;14.70;11.85;;;;;;;2.15;93.58;99865.98;2123537;82;21491;-82
2022/12/06 13:35:58;;;;;;;16.87;12.90;;;;;;;2.15;93.58;99869.91;2108239;83;21583;-81
2022/12/06 13:39:31;;;;;;;15.90;11.78;;;;;;;2.18;93.71;99874.91;2107010;83;21477;-82
2022/12/06 13:42:40;;;;;;;13.60;10.82;;;;;;;2.18;93.71;99871.45;2127451;83;21055;-83
2022/12/06 13:45:52;;;;;;;15.32;11.70;;;;;;;2.14;93.57;99881.34;2128693;82;21113;-82
2022/12/06 13:49:04;;;;;;;16.75;12.13;;;;;;;2.14;93.66;99880.03;2131559;82;21030;-81
2022/12/06 13:52:05;;;;;;;15.83;11.83;;;;;;;2.13;93.61;99880.97;2125049;82;21116;-79
2022/12/06 13:55:31;;;;;;;17.98;12.18;;;;;;;2.11;93.55;99881.58;2097908;84;21093;-80
2022/12/06 13:58:41;;;;;;;15.00;11.18;;;;;;;2.11;93.59;99879.41;2103497;83;21078;-82
2022/12/06 14:01:51;;;;;;;13.50;10.30;;;;;;;2.09;93.56;99884.78;2098844;84;20997;-82
2022/12/06 14:04:53;;;;;;;30.62;19.92;;;;;;;2.08;93.52;99888.33;2096362;84;20997;-83
2022/12/06 14:07:56;;;;;;;38.92;24.20;;;;;;;2.06;93.57;99883.72;2099956;84;21123;-79
2022/12/06 14:11:24;;;;;;;27.98;18.32;;;;;;;2.05;93.53;99882.51;2118059;83;21097;-82
2022/12/06 14:14:25;;;;;;;19.80;13.85;;;;;;;2.05;93.52;99880.72;2133904;83;21050;-81
2022/12/06 14:17:39;;;;;;;17.27;12.05;;;;;;;2.04;93.57;99879.06;2119183;83;21506;-80
2022/12/06 14:20:41;;;;;;;15.18;10.75;;;;;;;2.05;93.65;99879.89;2114137;83;21057;-82
2022/12/06 14:23:47;;;;;;;14.33;10.90;;;;;;;2.04;93.61;99880.38;2115687;83;21367;-82
2022/12/06 14:26:49;;;;;;;16.48;11.93;;;;;;;2.02;93.57;99877.03;2076495;85;21020;-81
2022/12/06 14:30:04;;;;;;;17.60;11.65;;;;;;;2.01;93.59;99877.52;2073754;84;21505;-80
2022/12/06 14:33:22;;;;;;;16.52;10.45;;;;;;;2.02;93.59;99881.78;2098697;83;21580;-80
2022/12/06 14:36:34;;;;;;;14.43;10.88;;;;;;;2.01;93.56;99876.69;2113401;84;21051;-85
2022/12/06 14:39:39;;;;;;;19.27;13.25;;;;;;;1.98;93.56;99873.83;2111741;83;21093;-87
2022/12/06 14:43:00;;;;;;;15.38;11.93;;;;;;;1.96;93.49;99881.43;2115605;84;21031;-89
2022/12/06 14:46:07;;;;;;;15.68;10.80;;;;;;;1.93;93.50;99876.44;2109391;83;21049;-91
2022/12/06 14:52:36;;;;;;;28.83;15.43;;;;;;;1.93;93.58;99886.42;2095566;84;22346;-89
2022/12/06 14:56:04;;;;;;;25.23;13.65;;;;;;;1.92;93.53;99883.94;2087600;84;20982;-90
2022/12/06 14:59:11;;;;;;;37.88;18.67;;;;;;;1.92;93.53;99890.48;2093827;84;21063;-83